createdAt,value
2018-11-05T00:00:00.723Z,8.00
2018-11-05T00:02:29.711Z,8.20
2018-11-05T00:04:58.603Z,8.10
2018-11-05T00:07:29.375Z,8.00
2018-11-05T00:09:58.393Z,8.30
2018-11-05T00:12:27.668Z,8.20
2018-11-05T00:14:57.451Z,8.30
2018-11-05T00:17:28.171Z,8.30
2018-11-05T00:19:57.096Z,8.30
2018-11-05T00:22:26.090Z,8.40
2018-11-05T00:24:54.836Z,8.20
2018-11-05T00:27:24.088Z,8.20
2018-11-05T00:29:52.959Z,8.20
2018-11-05T00:32:21.733Z,8.20
2018-11-05T00:34:51.781Z,8.30
2018-11-05T00:37:20.538Z,8.30
2018-11-05T00:39:49.328Z,8.30
2018-11-05T00:42:18.178Z,8.20
2018-11-05T00:44:48.391Z,8.30
2018-11-05T00:47:17.219Z,8.50
2018-11-05T00:49:45.984Z,8.00
2018-11-05T00:52:15.857Z,8.10
2018-11-05T00:54:44.765Z,8.00
2018-11-05T00:57:13.628Z,8.10
2018-11-05T00:59:42.399Z,8.00
2018-11-05T01:02:11.595Z,8.00
2018-11-05T01:04:40.279Z,8.00
2018-11-05T01:07:09.323Z,8.00
2018-11-05T01:09:38.048Z,8.10
2018-11-05T01:12:06.911Z,8.00
2018-11-05T01:14:36.846Z,8.20
2018-11-05T01:17:06.249Z,8.00
2018-11-05T01:19:36.009Z,8.00
2018-11-05T01:22:04.999Z,7.90
2018-11-05T01:24:36.005Z,7.90
2018-11-05T01:27:04.792Z,8.10
2018-11-05T01:29:33.702Z,7.80
2018-11-05T01:32:02.705Z,7.90
2018-11-05T01:34:31.581Z,8.00
2018-11-05T01:37:00.287Z,8.00
2018-11-05T01:39:29.019Z,8.00
2018-11-05T01:41:57.647Z,8.00
2018-11-05T01:44:26.434Z,7.90
2018-11-05T01:46:55.107Z,7.80
2018-11-05T01:49:23.757Z,7.80
2018-11-05T01:51:52.426Z,8.00
2018-11-05T01:54:25.700Z,7.80
2018-11-05T01:56:54.734Z,8.00
2018-11-05T01:59:23.646Z,8.00
2018-11-05T02:01:52.444Z,8.00
2018-11-05T02:04:21.181Z,8.00
2018-11-05T02:06:50.102Z,8.00
2018-11-05T02:09:18.986Z,7.90
2018-11-05T02:11:47.784Z,7.90
2018-11-05T02:14:16.638Z,8.00
2018-11-05T02:16:45.517Z,8.00
2018-11-05T02:19:18.033Z,8.00
2018-11-05T02:21:46.678Z,8.00
2018-11-05T02:24:15.881Z,8.00
2018-11-05T02:26:44.595Z,8.00
2018-11-05T02:29:13.295Z,8.00
2018-11-05T02:31:42.201Z,8.00
2018-11-05T02:34:11.191Z,8.10
2018-11-05T02:36:40.074Z,8.00
2018-11-05T02:39:09.719Z,8.10
2018-11-05T02:41:38.543Z,8.00
2018-11-05T02:44:07.285Z,8.00
2018-11-05T02:46:36.012Z,8.00
2018-11-05T02:49:04.661Z,8.00
2018-11-05T02:51:33.253Z,7.90
2018-11-05T02:54:01.928Z,7.90
2018-11-05T02:56:30.943Z,8.00
2018-11-05T02:58:59.720Z,8.00
2018-11-05T03:01:28.822Z,8.00
2018-11-05T03:03:57.587Z,8.10
2018-11-05T03:06:26.324Z,7.90
2018-11-05T03:08:55.108Z,7.90
2018-11-05T03:11:23.805Z,7.90
2018-11-05T03:13:52.733Z,8.00
2018-11-05T03:16:21.600Z,8.00
2018-11-05T03:18:50.357Z,8.00
2018-11-05T03:21:19.138Z,8.00
2018-11-05T03:23:48.066Z,7.90
2018-11-05T03:26:16.817Z,7.90
2018-11-05T03:28:45.670Z,7.60
2018-11-05T03:31:14.462Z,7.80
2018-11-05T03:33:43.477Z,7.80
2018-11-05T03:36:12.197Z,7.70
2018-11-05T03:38:40.889Z,7.70
2018-11-05T03:41:09.554Z,7.60
2018-11-05T03:43:38.255Z,7.60
2018-11-05T03:46:07.280Z,7.80
2018-11-05T03:48:36.158Z,7.70
2018-11-05T03:51:12.261Z,7.60
2018-11-05T03:53:41.153Z,7.80
2018-11-05T03:56:10.046Z,8.00
2018-11-05T03:58:38.976Z,8.30
2018-11-05T04:01:07.678Z,8.40
2018-11-05T04:03:36.562Z,8.40
2018-11-05T04:06:05.680Z,8.20
2018-11-05T04:08:34.642Z,8.10
2018-11-05T04:11:03.455Z,8.00
2018-11-05T04:13:32.206Z,7.90
2018-11-05T04:16:01.047Z,7.60
2018-11-05T04:18:30.077Z,7.80
2018-11-05T04:21:00.921Z,7.70
2018-11-05T04:23:43.132Z,7.70
2018-11-05T04:26:11.988Z,7.90
2018-11-05T04:28:40.969Z,8.20
2018-11-05T04:31:09.769Z,8.00
2018-11-05T04:33:38.570Z,7.80
2018-11-05T04:36:07.370Z,7.80
2018-11-05T04:38:36.214Z,7.70
2018-11-05T04:41:05.215Z,7.70
2018-11-05T04:43:34.020Z,7.50
2018-11-05T04:46:02.806Z,7.50
2018-11-05T04:48:32.646Z,7.50
2018-11-05T04:51:01.354Z,7.50
2018-11-05T04:53:30.039Z,7.50
2018-11-05T04:55:58.922Z,7.30
2018-11-05T04:58:27.693Z,7.50
2018-11-05T05:00:56.432Z,7.40
2018-11-05T05:03:25.332Z,7.50
2018-11-05T05:05:54.136Z,7.20
2018-11-05T05:08:22.941Z,7.20
2018-11-05T05:10:51.814Z,7.10
2018-11-05T05:13:20.616Z,7.20
2018-11-05T05:15:49.265Z,7.10
2018-11-05T05:18:17.989Z,7.50
2018-11-05T05:20:46.732Z,7.40
2018-11-05T05:23:15.510Z,7.50
2018-11-05T05:25:44.326Z,7.30
2018-11-05T05:28:13.036Z,7.50
2018-11-05T05:30:41.756Z,7.50
2018-11-05T05:33:10.720Z,7.40
2018-11-05T05:35:39.219Z,7.50
2018-11-05T05:38:08.098Z,7.40
2018-11-05T05:40:36.798Z,7.40
2018-11-05T05:43:05.750Z,7.30
2018-11-05T05:45:34.431Z,7.30
2018-11-05T05:48:03.182Z,7.50
2018-11-05T05:50:31.975Z,7.20
2018-11-05T05:53:02.034Z,7.10
2018-11-05T05:55:34.115Z,7.20
2018-11-05T05:58:02.814Z,7.10
2018-11-05T06:00:31.537Z,6.90
2018-11-05T06:03:00.254Z,6.90
2018-11-05T06:05:28.982Z,7.00
2018-11-05T06:07:57.752Z,6.80
2018-11-05T06:10:26.521Z,7.00
2018-11-05T06:12:55.309Z,6.90
2018-11-05T06:15:24.119Z,7.10
2018-11-05T06:17:54.098Z,6.90
2018-11-05T06:20:22.779Z,6.90
2018-11-05T06:22:51.655Z,6.80
2018-11-05T06:25:20.384Z,7.00
2018-11-05T06:27:49.178Z,6.80
2018-11-05T06:30:19.571Z,6.90
2018-11-05T06:32:49.244Z,6.90
2018-11-05T06:35:18.243Z,6.80
2018-11-05T06:37:46.765Z,6.80
2018-11-05T06:40:17.316Z,7.00
2018-11-05T06:42:46.482Z,6.80
2018-11-05T06:45:17.362Z,6.90
2018-11-05T06:47:46.765Z,6.90
2018-11-05T06:50:17.927Z,7.00
2018-11-05T06:52:47.131Z,6.90
2018-11-05T06:55:16.329Z,6.90
2018-11-05T06:57:45.123Z,6.90
2018-11-05T07:00:22.117Z,7.10
2018-11-05T07:02:50.803Z,7.10
2018-11-05T07:05:19.702Z,7.10
2018-11-05T07:07:48.563Z,7.20
2018-11-05T07:10:18.100Z,7.00
2018-11-05T07:12:47.181Z,7.10
2018-11-05T07:15:18.050Z,7.20
2018-11-05T07:17:47.653Z,7.00
2018-11-05T07:20:18.737Z,7.10
2018-11-05T07:22:48.402Z,7.20
2018-11-05T07:25:17.488Z,7.30
2018-11-05T07:27:46.401Z,7.40
2018-11-05T07:30:18.161Z,7.70
2018-11-05T07:32:48.327Z,7.80
2018-11-05T07:35:17.103Z,7.80
2018-11-05T07:37:46.032Z,7.60
2018-11-05T07:40:15.829Z,7.70
2018-11-05T07:42:44.558Z,7.40
2018-11-05T07:45:19.616Z,7.50
2018-11-05T07:47:48.556Z,7.50
2018-11-05T07:50:18.476Z,7.40
2018-11-05T07:52:47.343Z,7.70
2018-11-05T07:55:17.253Z,7.60
2018-11-05T07:57:47.123Z,7.70
2018-11-05T08:00:21.737Z,7.70
2018-11-05T08:02:52.164Z,8.20
2018-11-05T08:05:21.813Z,8.10
2018-11-05T08:07:50.642Z,8.00
2018-11-05T08:10:23.184Z,8.30
2018-11-05T08:12:51.956Z,8.30
2018-11-05T08:15:21.982Z,8.50
2018-11-05T08:17:51.462Z,8.60
2018-11-05T08:20:24.047Z,8.70
2018-11-05T08:22:52.717Z,8.70
2018-11-05T08:25:21.436Z,8.90
2018-11-05T08:27:50.300Z,8.90
2018-11-05T08:30:23.458Z,9.10
2018-11-05T08:32:52.325Z,9.20
2018-11-05T08:35:22.092Z,9.00
2018-11-05T08:37:51.382Z,8.90
2018-11-05T08:40:22.144Z,9.10
2018-11-05T08:42:51.725Z,8.90
2018-11-05T08:45:22.059Z,8.80
2018-11-05T08:47:50.774Z,8.70
2018-11-05T08:50:20.706Z,9.00
2018-11-05T08:52:49.319Z,9.20
2018-11-05T08:55:20.518Z,9.00
2018-11-05T08:57:49.234Z,9.20
2018-11-05T09:00:23.934Z,9.00
2018-11-05T09:02:53.509Z,8.90
2018-11-05T09:05:22.751Z,9.00
2018-11-05T09:07:52.341Z,9.50
2018-11-05T09:10:21.377Z,9.50
2018-11-05T09:12:49.833Z,9.30
2018-11-05T09:15:19.781Z,9.60
2018-11-05T09:17:48.888Z,9.90
2018-11-05T09:20:18.519Z,9.80
2018-11-05T09:22:47.765Z,9.80
2018-11-05T09:25:17.086Z,9.90
2018-11-05T09:27:45.871Z,10.30
2018-11-05T09:30:18.557Z,10.20
2018-11-05T09:32:47.460Z,10.10
2018-11-05T09:35:16.095Z,10.20
2018-11-05T09:37:44.856Z,10.30
2018-11-05T09:40:17.826Z,10.40
2018-11-05T09:42:47.132Z,10.60
2018-11-05T09:45:18.346Z,10.40
2018-11-05T09:47:47.649Z,10.40
2018-11-05T09:50:16.906Z,10.70
2018-11-05T09:52:45.605Z,10.50
2018-11-05T09:55:14.760Z,10.80
2018-11-05T09:57:43.444Z,10.70
2018-11-05T10:00:15.338Z,10.80
2018-11-05T10:02:49.361Z,11.10
2018-11-05T10:05:18.334Z,11.10
2018-11-05T10:07:47.176Z,11.10
2018-11-05T10:10:16.736Z,11.30
2018-11-05T10:12:45.733Z,11.30
2018-11-05T10:15:15.420Z,11.40
2018-11-05T10:17:44.092Z,12.20
2018-11-05T10:20:16.172Z,12.30
2018-11-05T10:22:45.511Z,12.10
2018-11-05T10:25:14.709Z,12.10
2018-11-05T10:27:43.353Z,12.60
2018-11-05T10:30:16.589Z,12.70
2018-11-05T10:32:45.498Z,12.70
2018-11-05T10:35:15.148Z,12.60
2018-11-05T10:37:43.756Z,12.30
2018-11-05T10:40:15.533Z,12.30
2018-11-05T10:42:45.300Z,12.40
2018-11-05T10:45:15.228Z,13.00
2018-11-05T10:47:43.885Z,13.30
2018-11-05T10:50:13.950Z,13.10
2018-11-05T10:52:43.119Z,13.00
2018-11-05T10:55:11.855Z,13.00
2018-11-05T10:57:41.374Z,12.90
2018-11-05T11:02:57.290Z,12.40
2018-11-05T11:05:26.798Z,12.30
2018-11-05T11:07:57.210Z,12.00
2018-11-05T11:10:26.815Z,12.30
2018-11-05T11:12:55.683Z,12.70
2018-11-05T11:15:24.593Z,13.30
2018-11-05T11:17:53.515Z,12.90
2018-11-05T11:20:22.213Z,12.90
2018-11-05T11:22:51.117Z,12.70
2018-11-05T11:25:19.797Z,12.70
2018-11-05T11:27:48.484Z,13.00
2018-11-05T11:30:17.533Z,12.90
2018-11-05T11:32:47.074Z,13.10
2018-11-05T11:35:15.773Z,13.00
2018-11-05T11:37:44.482Z,13.00
2018-11-05T11:40:17.418Z,12.70
2018-11-05T11:42:47.124Z,12.70
2018-11-05T11:45:16.747Z,12.40
2018-11-05T11:47:45.536Z,12.40
2018-11-05T11:50:15.331Z,12.50
2018-11-05T11:52:44.214Z,12.40
2018-11-05T11:55:15.052Z,12.50
2018-11-05T11:57:44.502Z,12.60
2018-11-05T12:00:15.696Z,12.60
2018-11-05T12:02:45.129Z,12.40
2018-11-05T12:05:14.307Z,12.70
2018-11-05T12:07:43.162Z,12.60
2018-11-05T12:10:14.065Z,13.10
2018-11-05T12:12:42.950Z,13.30
2018-11-05T12:15:12.473Z,13.80
2018-11-05T12:17:41.902Z,13.80
2018-11-05T12:20:13.271Z,13.80
2018-11-05T12:22:42.418Z,14.00
2018-11-05T12:25:11.260Z,14.00
2018-11-05T12:27:39.925Z,13.80
2018-11-05T12:30:10.834Z,13.90
2018-11-05T12:32:39.637Z,14.20
2018-11-05T12:35:09.838Z,14.00
2018-11-05T12:37:38.794Z,14.10
2018-11-05T12:40:09.390Z,14.20
2018-11-05T12:42:38.121Z,13.90
2018-11-05T12:45:07.710Z,14.00
2018-11-05T12:47:36.424Z,14.10
2018-11-05T12:50:06.940Z,13.90
2018-11-05T12:52:35.653Z,14.00
2018-11-05T12:55:04.553Z,14.10
2018-11-05T12:57:33.269Z,14.00
2018-11-05T13:00:01.956Z,14.40
2018-11-05T13:02:30.809Z,14.40
2018-11-05T13:05:01.385Z,14.00
2018-11-05T13:07:30.325Z,13.80
2018-11-05T13:09:59.084Z,13.60
2018-11-05T13:12:27.671Z,13.50
2018-11-05T13:14:56.655Z,13.50
2018-11-05T13:17:25.287Z,13.50
2018-11-05T13:19:54.035Z,13.40
2018-11-05T13:22:22.832Z,13.40
2018-11-05T13:24:51.533Z,13.60
2018-11-05T13:27:20.201Z,13.70
2018-11-05T13:29:49.040Z,14.00
2018-11-05T13:32:17.724Z,14.00
2018-11-05T13:34:46.345Z,13.90
2018-11-05T13:37:15.006Z,13.80
2018-11-05T13:39:43.621Z,13.80
2018-11-05T13:42:12.261Z,14.10
2018-11-05T13:44:40.964Z,14.30
2018-11-05T13:47:11.901Z,14.10
2018-11-05T13:49:40.014Z,14.00
2018-11-05T13:52:08.872Z,13.90
2018-11-05T13:54:37.589Z,13.80
2018-11-05T13:57:06.308Z,13.70
2018-11-05T13:59:34.946Z,13.60
2018-11-05T14:02:03.722Z,14.10
2018-11-05T14:04:32.454Z,14.10
2018-11-05T14:07:01.143Z,14.20
2018-11-05T14:09:30.725Z,14.40
2018-11-05T14:11:59.545Z,14.60
2018-11-05T14:14:28.391Z,14.60
2018-11-05T14:16:57.240Z,14.70
2018-11-05T14:19:25.970Z,14.50
2018-11-05T14:21:54.670Z,14.30
2018-11-05T14:24:23.355Z,14.10
2018-11-05T14:26:52.594Z,13.90
2018-11-05T14:29:21.775Z,13.70
2018-11-05T14:31:51.767Z,13.60
2018-11-05T14:34:20.505Z,13.50
2018-11-05T14:36:49.185Z,13.60
2018-11-05T14:39:17.822Z,13.40
2018-11-05T14:41:46.438Z,13.40
2018-11-05T14:44:15.093Z,13.30
2018-11-05T14:46:43.704Z,13.20
2018-11-05T14:49:13.237Z,13.10
2018-11-05T14:51:41.985Z,13.20
2018-11-05T14:54:11.537Z,13.10
2018-11-05T14:56:40.367Z,13.40
2018-11-05T14:59:08.995Z,13.10
2018-11-05T15:01:37.677Z,13.40
2018-11-05T15:04:06.342Z,13.30
2018-11-05T15:06:34.890Z,13.10
2018-11-05T15:09:03.912Z,13.00
2018-11-05T15:11:32.564Z,13.00
2018-11-05T15:14:01.364Z,13.20
2018-11-05T15:16:30.110Z,13.10
2018-11-05T15:18:58.904Z,13.10
2018-11-05T15:21:27.536Z,13.10
2018-11-05T15:23:56.219Z,12.90
2018-11-05T15:26:25.071Z,12.90
2018-11-05T15:28:53.607Z,12.70
2018-11-05T15:31:22.341Z,13.00
2018-11-05T15:33:51.040Z,12.80
2018-11-05T15:36:19.769Z,12.80
2018-11-05T15:38:48.393Z,12.70
2018-11-05T15:41:17.039Z,13.00
2018-11-05T15:43:45.572Z,12.90
2018-11-05T15:46:14.205Z,12.60
2018-11-05T15:48:42.895Z,12.40
2018-11-05T15:51:11.630Z,12.40
2018-11-05T15:53:40.252Z,12.50
2018-11-05T15:56:08.799Z,12.50
2018-11-05T15:58:37.549Z,12.50
2018-11-05T16:01:06.765Z,12.40
2018-11-05T16:03:35.349Z,12.30
2018-11-05T16:06:03.938Z,12.10
2018-11-05T16:08:32.650Z,12.00
2018-11-05T16:11:01.208Z,12.30
2018-11-05T16:13:29.907Z,12.10
2018-11-05T16:15:58.573Z,12.00
2018-11-05T16:18:27.257Z,11.90
2018-11-05T16:20:55.939Z,12.00
2018-11-05T16:23:24.554Z,12.00
2018-11-05T16:25:53.318Z,12.10
2018-11-05T16:28:22.003Z,12.00
2018-11-05T16:30:50.755Z,11.80
2018-11-05T16:33:19.479Z,11.70
2018-11-05T16:35:48.190Z,11.70
2018-11-05T16:38:16.848Z,11.70
2018-11-05T16:40:45.475Z,11.80
2018-11-05T16:43:14.136Z,11.70
2018-11-05T16:45:42.994Z,11.70
2018-11-05T16:48:11.666Z,11.70
2018-11-05T16:50:40.344Z,11.40
2018-11-05T16:53:08.917Z,11.50
2018-11-05T16:55:37.468Z,11.30
2018-11-05T16:58:06.645Z,11.40
2018-11-05T17:00:35.328Z,11.30
2018-11-05T17:03:04.028Z,11.20
2018-11-05T17:05:32.746Z,11.10
2018-11-05T17:08:01.372Z,11.10
2018-11-05T17:10:30.033Z,11.10
2018-11-05T17:12:58.773Z,11.10
2018-11-05T17:15:27.461Z,11.10
2018-11-05T17:17:56.252Z,11.00
2018-11-05T17:20:24.945Z,11.00
2018-11-05T17:22:53.483Z,11.00
2018-11-05T17:25:22.197Z,11.20
2018-11-05T17:27:50.962Z,11.00
2018-11-05T17:30:20.934Z,11.00
2018-11-05T17:32:49.892Z,11.00
2018-11-05T17:35:18.963Z,10.90
2018-11-05T17:37:48.246Z,11.00
2018-11-05T17:40:18.501Z,11.00
2018-11-05T17:42:47.266Z,10.80
2018-11-05T17:45:17.421Z,11.00
2018-11-05T17:47:46.233Z,10.80
2018-11-05T17:50:15.921Z,10.70
2018-11-05T17:52:44.835Z,10.70
2018-11-05T17:55:13.772Z,10.80
2018-11-05T17:57:43.458Z,10.70
2018-11-05T18:00:15.130Z,10.80
2018-11-05T18:02:43.711Z,10.80
2018-11-05T18:05:12.698Z,10.70
2018-11-05T18:07:41.696Z,10.70
2018-11-05T18:10:10.553Z,10.50
2018-11-05T18:12:39.324Z,10.80
2018-11-05T18:15:09.515Z,10.50
2018-11-05T18:17:38.817Z,10.70
2018-11-05T18:20:08.828Z,10.80
2018-11-05T18:22:38.121Z,10.70
2018-11-05T18:25:08.802Z,10.70
2018-11-05T18:27:37.437Z,10.70
2018-11-05T18:30:06.514Z,10.70
2018-11-05T18:32:35.128Z,10.70
2018-11-05T18:35:03.919Z,10.60
2018-11-05T18:37:32.661Z,10.70
2018-11-05T18:40:01.561Z,10.60
2018-11-05T18:42:30.281Z,10.90
2018-11-05T18:44:58.968Z,10.80
2018-11-05T18:47:27.719Z,10.70
2018-11-05T18:49:56.870Z,10.70
2018-11-05T18:52:25.578Z,10.60
2018-11-05T18:54:54.344Z,11.10
2018-11-05T18:57:23.137Z,11.00
2018-11-05T18:59:51.832Z,11.30
2018-11-05T19:02:27.537Z,11.40
2018-11-05T19:04:56.340Z,11.40
2018-11-05T19:07:25.017Z,11.40
2018-11-05T19:09:53.821Z,11.40
2018-11-05T19:12:22.498Z,11.40
2018-11-05T19:14:51.431Z,11.10
2018-11-05T19:17:20.024Z,11.00
2018-11-05T19:19:48.777Z,11.20
2018-11-05T19:22:17.535Z,11.00
2018-11-05T19:24:46.252Z,11.10
2018-11-05T19:27:14.967Z,10.70
2018-11-05T19:29:43.952Z,10.80
2018-11-05T19:32:12.823Z,10.80
2018-11-05T19:34:41.714Z,10.70
2018-11-05T19:37:10.431Z,10.70
2018-11-05T19:39:39.080Z,10.90
2018-11-05T19:42:08.027Z,10.70
2018-11-05T19:44:36.655Z,10.60
2018-11-05T19:47:05.278Z,10.70
2018-11-05T19:49:33.942Z,10.70
2018-11-05T19:52:02.737Z,10.80
2018-11-05T19:54:31.590Z,10.70
2018-11-05T19:57:00.414Z,10.90
2018-11-05T19:59:29.359Z,10.70
2018-11-05T20:01:58.381Z,10.60
2018-11-05T20:04:27.219Z,10.80
2018-11-05T20:06:55.974Z,10.80
2018-11-05T20:09:24.760Z,10.70
2018-11-05T20:11:53.471Z,10.50
2018-11-05T20:14:22.165Z,10.80
2018-11-05T20:16:51.205Z,10.80
2018-11-05T20:19:19.896Z,11.10
2018-11-05T20:21:48.573Z,11.00
2018-11-05T20:24:17.480Z,11.10
2018-11-05T20:26:46.398Z,11.10
2018-11-05T20:29:15.160Z,11.00
2018-11-05T20:31:44.099Z,11.20
2018-11-05T20:34:13.000Z,11.10
2018-11-05T20:36:41.336Z,11.10
2018-11-05T20:39:12.007Z,11.10
2018-11-05T20:41:41.018Z,11.20
2018-11-05T20:44:09.842Z,11.70
2018-11-05T20:46:38.624Z,11.80
2018-11-05T20:49:07.324Z,11.80
2018-11-05T20:51:36.193Z,11.60
2018-11-05T20:54:05.230Z,11.30
2018-11-05T20:56:33.856Z,11.90
2018-11-05T20:59:02.508Z,11.50
2018-11-05T21:01:31.287Z,11.70
2018-11-05T21:04:00.045Z,11.70
2018-11-05T21:06:28.728Z,11.80
2018-11-05T21:08:57.351Z,11.50
2018-11-05T21:11:25.946Z,11.40
2018-11-05T21:13:54.555Z,11.40
2018-11-05T21:16:23.521Z,11.30
2018-11-05T21:18:52.120Z,11.50
2018-11-05T21:21:20.771Z,11.50
2018-11-05T21:23:50.398Z,11.60
2018-11-05T21:26:19.002Z,11.80
2018-11-05T21:28:47.648Z,11.60
2018-11-05T21:31:16.451Z,11.70
2018-11-05T21:33:45.180Z,11.80
2018-11-05T21:36:13.790Z,11.90
2018-11-05T21:38:42.424Z,11.80
2018-11-05T21:41:11.161Z,11.70
2018-11-05T21:43:40.003Z,11.70
2018-11-05T21:46:09.591Z,11.70
2018-11-05T21:48:38.169Z,11.40
2018-11-05T21:51:06.932Z,11.50
2018-11-05T21:53:35.874Z,11.70
2018-11-05T21:56:04.538Z,11.70
2018-11-05T21:58:33.247Z,11.70
2018-11-05T22:01:01.842Z,11.80
2018-11-05T22:03:30.770Z,11.80
2018-11-05T22:05:59.452Z,11.80
2018-11-05T22:08:28.278Z,11.80
2018-11-05T22:10:57.066Z,12.10
2018-11-05T22:13:25.725Z,12.00
2018-11-05T22:15:54.735Z,12.10
2018-11-05T22:18:23.441Z,12.10
2018-11-05T22:20:52.643Z,12.20
2018-11-05T22:23:21.408Z,12.00
2018-11-05T22:25:50.146Z,12.00
2018-11-05T22:28:18.883Z,12.00
2018-11-05T22:30:47.749Z,11.90
2018-11-05T22:33:16.508Z,11.60
2018-11-05T22:35:45.341Z,11.60
2018-11-05T22:38:14.239Z,12.00
2018-11-05T22:40:42.991Z,12.00
2018-11-05T22:43:11.741Z,12.10
2018-11-05T22:45:40.462Z,12.00
2018-11-05T22:48:09.243Z,12.10
2018-11-05T22:50:37.936Z,11.90
2018-11-05T22:53:08.104Z,12.00
2018-11-05T22:55:36.706Z,12.20
2018-11-05T22:58:05.970Z,12.50
2018-11-05T23:00:39.861Z,12.30
2018-11-05T23:03:13.812Z,12.40
2018-11-05T23:05:42.439Z,12.10
2018-11-05T23:08:11.157Z,12.00
2018-11-05T23:10:39.891Z,11.90
2018-11-05T23:13:08.528Z,12.00
2018-11-05T23:15:37.263Z,12.10
2018-11-05T23:18:06.475Z,11.90
2018-11-05T23:20:35.115Z,12.10
2018-11-05T23:23:03.869Z,11.60
2018-11-05T23:25:32.621Z,11.80
2018-11-05T23:28:01.291Z,11.80
2018-11-05T23:30:30.069Z,11.70
2018-11-05T23:32:58.834Z,11.70
2018-11-05T23:35:27.697Z,11.60
2018-11-05T23:37:57.163Z,11.90
2018-11-05T23:40:26.106Z,11.70
2018-11-05T23:42:54.866Z,12.00
2018-11-05T23:45:23.678Z,12.00
2018-11-05T23:47:52.371Z,12.00
2018-11-05T23:50:21.099Z,11.60
2018-11-05T23:52:49.968Z,12.00
2018-11-05T23:55:18.808Z,12.10
2018-11-05T23:57:51.179Z,12.00
